sensor_id;sensor_type;location;lat;lon;timestamp;temperature;humidity
54192;DHT22;40101;53.002;6.488;2022-12-07T00:01:38;2.90;99.90
54192;DHT22;40101;53.002;6.488;2022-12-07T00:04:06;3.50;99.90
54192;DHT22;40101;53.002;6.488;2022-12-07T00:06:37;3.00;99.90
54192;DHT22;40101;53.002;6.488;2022-12-07T00:09:10;3.40;99.90
54192;DHT22;40101;53.002;6.488;2022-12-07T00:11:36;3.30;99.90
54192;DHT22;40101;53.002;6.488;2022-12-07T00:14:04;3.10;99.90
54192;DHT22;40101;53.002;6.488;2022-12-07T00:16:32;3.10;99.90
54192;DHT22;40101;53.002;6.488;2022-12-07T00:18:58;3.10;99.90
54192;DHT22;40101;53.002;6.488;2022-12-07T00:21:26;3.50;99.90
54192;DHT22;40101;53.002;6.488;2022-12-07T00:23:56;3.60;99.90
54192;DHT22;40101;53.002;6.488;2022-12-07T00:26:24;3.00;99.90
54192;DHT22;40101;53.002;6.488;2022-12-07T00:28:59;3.60;99.90
54192;DHT22;40101;53.002;6.488;2022-12-07T00:31:27;2.90;99.90
54192;DHT22;40101;53.002;6.488;2022-12-07T00:33:54;3.80;99.90
54192;DHT22;40101;53.002;6.488;2022-12-07T00:36:22;2.90;99.90
54192;DHT22;40101;53.002;6.488;2022-12-07T00:38:50;3.20;99.90
54192;DHT22;40101;53.002;6.488;2022-12-07T00:41:18;2.80;99.90
54192;DHT22;40101;53.002;6.488;2022-12-07T00:43:45;2.90;99.90
54192;DHT22;40101;53.002;6.488;2022-12-07T00:46:17;2.80;99.90
54192;DHT22;40101;53.002;6.488;2022-12-07T00:48:43;2.70;99.90
54192;DHT22;40101;53.002;6.488;2022-12-07T00:51:14;3.40;99.90
54192;DHT22;40101;53.002;6.488;2022-12-07T00:53:40;2.70;99.90
54192;DHT22;40101;53.002;6.488;2022-12-07T00:56:12;3.50;99.90
54192;DHT22;40101;53.002;6.488;2022-12-07T00:58:38;2.70;99.90
54192;DHT22;40101;53.002;6.488;2022-12-07T01:01:05;2.70;99.90
54192;DHT22;40101;53.002;6.488;2022-12-07T01:03:31;2.70;99.90
54192;DHT22;40101;53.002;6.488;2022-12-07T01:05:57;2.80;99.90
54192;DHT22;40101;53.002;6.488;2022-12-07T01:08:24;2.80;99.90
54192;DHT22;40101;53.002;6.488;2022-12-07T01:11:01;4.00;99.90
54192;DHT22;40101;53.002;6.488;2022-12-07T01:13:31;2.80;99.90
54192;DHT22;40101;53.002;6.488;2022-12-07T01:15:59;3.40;99.90
54192;DHT22;40101;53.002;6.488;2022-12-07T01:18:29;2.30;99.90
54192;DHT22;40101;53.002;6.488;2022-12-07T01:21:13;3.60;99.90
54192;DHT22;40101;53.002;6.488;2022-12-07T01:23:39;2.70;99.90
54192;DHT22;40101;53.002;6.488;2022-12-07T01:26:09;2.70;99.90
54192;DHT22;40101;53.002;6.488;2022-12-07T01:28:35;2.70;99.90
54192;DHT22;40101;53.002;6.488;2022-12-07T01:31:05;2.80;99.90
54192;DHT22;40101;53.002;6.488;2022-12-07T01:33:34;3.50;99.90
54192;DHT22;40101;53.002;6.488;2022-12-07T01:36:05;2.90;99.90
54192;DHT22;40101;53.002;6.488;2022-12-07T01:38:32;3.00;99.90
54192;DHT22;40101;53.002;6.488;2022-12-07T01:40:58;3.00;99.90
54192;DHT22;40101;53.002;6.488;2022-12-07T01:43:27;3.00;99.90
54192;DHT22;40101;53.002;6.488;2022-12-07T01:45:54;3.00;99.90
54192;DHT22;40101;53.002;6.488;2022-12-07T01:48:33;3.10;99.90
54192;DHT22;40101;53.002;6.488;2022-12-07T01:51:03;3.10;99.90
54192;DHT22;40101;53.002;6.488;2022-12-07T01:53:32;2.60;99.90
54192;DHT22;40101;53.002;6.488;2022-12-07T01:55:59;3.90;99.90
54192;DHT22;40101;53.002;6.488;2022-12-07T01:58:25;3.30;99.90
54192;DHT22;40101;53.002;6.488;2022-12-07T02:00:51;4.40;99.90
54192;DHT22;40101;53.002;6.488;2022-12-07T02:03:40;3.30;99.90
54192;DHT22;40101;53.002;6.488;2022-12-07T02:06:07;3.30;99.90
54192;DHT22;40101;53.002;6.488;2022-12-07T02:08:33;3.30;99.90
54192;DHT22;40101;53.002;6.488;2022-12-07T02:11:00;3.30;99.90
54192;DHT22;40101;53.002;6.488;2022-12-07T02:13:30;4.40;99.90
54192;DHT22;40101;53.002;6.488;2022-12-07T02:21:58;3.10;99.90
54192;DHT22;40101;53.002;6.488;2022-12-07T02:25:37;3.00;99.90
54192;DHT22;40101;53.002;6.488;2022-12-07T02:27:40;2.90;99.90
54192;DHT22;40101;53.002;6.488;2022-12-07T02:30:14;2.90;99.90
54192;DHT22;40101;53.002;6.488;2022-12-07T02:36:08;2.90;99.90
54192;DHT22;40101;53.002;6.488;2022-12-07T02:38:48;2.90;99.90
54192;DHT22;40101;53.002;6.488;2022-12-07T02:41:20;2.90;99.90
54192;DHT22;40101;53.002;6.488;2022-12-07T02:44:03;3.20;99.90
54192;DHT22;40101;53.002;6.488;2022-12-07T02:49:41;3.00;99.90
54192;DHT22;40101;53.002;6.488;2022-12-07T02:52:07;3.00;99.90
54192;DHT22;40101;53.002;6.488;2022-12-07T02:54:33;3.00;99.90
54192;DHT22;40101;53.002;6.488;2022-12-07T03:00:06;3.00;99.90
54192;DHT22;40101;53.002;6.488;2022-12-07T03:05:31;3.00;99.90
54192;DHT22;40101;53.002;6.488;2022-12-07T03:08:29;3.30;99.90
54192;DHT22;40101;53.002;6.488;2022-12-07T03:11:29;3.70;99.90
54192;DHT22;40101;53.002;6.488;2022-12-07T03:14:17;3.10;99.90
54192;DHT22;40101;53.002;6.488;2022-12-07T03:19:20;3.00;99.90
54192;DHT22;40101;53.002;6.488;2022-12-07T03:22:02;3.10;99.90
54192;DHT22;40101;53.002;6.488;2022-12-07T03:24:51;3.10;99.90
54192;DHT22;40101;53.002;6.488;2022-12-07T03:27:24;3.80;99.90
54192;DHT22;40101;53.002;6.488;2022-12-07T03:29:58;3.10;99.90
54192;DHT22;40101;53.002;6.488;2022-12-07T03:32:30;3.10;99.90
54192;DHT22;40101;53.002;6.488;2022-12-07T03:35:16;3.10;99.90
54192;DHT22;40101;53.002;6.488;2022-12-07T03:37:48;3.10;99.90
54192;DHT22;40101;53.002;6.488;2022-12-07T03:40:37;3.40;99.90
54192;DHT22;40101;53.002;6.488;2022-12-07T03:43:05;3.10;99.90
54192;DHT22;40101;53.002;6.488;2022-12-07T03:45:40;3.20;99.90
54192;DHT22;40101;53.002;6.488;2022-12-07T03:48:08;4.20;99.90
54192;DHT22;40101;53.002;6.488;2022-12-07T03:51:10;3.10;99.90
54192;DHT22;40101;53.002;6.488;2022-12-07T03:53:54;2.60;99.90
54192;DHT22;40101;53.002;6.488;2022-12-07T03:56:24;3.10;99.90
54192;DHT22;40101;53.002;6.488;2022-12-07T03:58:52;3.10;99.90
54192;DHT22;40101;53.002;6.488;2022-12-07T04:01:18;3.10;99.90
54192;DHT22;40101;53.002;6.488;2022-12-07T04:03:44;3.10;99.90
54192;DHT22;40101;53.002;6.488;2022-12-07T04:06:10;2.70;99.90
54192;DHT22;40101;53.002;6.488;2022-12-07T04:08:35;3.10;99.90
54192;DHT22;40101;53.002;6.488;2022-12-07T04:11:01;3.00;99.90
54192;DHT22;40101;53.002;6.488;2022-12-07T04:13:27;2.90;99.90
54192;DHT22;40101;53.002;6.488;2022-12-07T04:15:53;2.90;99.90
54192;DHT22;40101;53.002;6.488;2022-12-07T04:18:18;3.40;99.90
54192;DHT22;40101;53.002;6.488;2022-12-07T04:20:45;3.20;99.90
54192;DHT22;40101;53.002;6.488;2022-12-07T04:23:10;2.80;99.90
54192;DHT22;40101;53.002;6.488;2022-12-07T04:25:36;3.30;99.90
54192;DHT22;40101;53.002;6.488;2022-12-07T04:28:02;3.40;99.90
54192;DHT22;40101;53.002;6.488;2022-12-07T04:30:27;2.80;99.90
54192;DHT22;40101;53.002;6.488;2022-12-07T04:32:53;2.90;99.90
54192;DHT22;40101;53.002;6.488;2022-12-07T04:35:19;3.60;99.90
54192;DHT22;40101;53.002;6.488;2022-12-07T04:37:44;2.90;99.90
54192;DHT22;40101;53.002;6.488;2022-12-07T04:40:10;2.80;99.90
54192;DHT22;40101;53.002;6.488;2022-12-07T04:42:38;2.70;99.90
54192;DHT22;40101;53.002;6.488;2022-12-07T04:45:04;2.70;99.90
54192;DHT22;40101;53.002;6.488;2022-12-07T04:47:30;2.60;99.90
54192;DHT22;40101;53.002;6.488;2022-12-07T04:49:55;3.30;99.90
54192;DHT22;40101;53.002;6.488;2022-12-07T04:52:21;2.60;99.90
54192;DHT22;40101;53.002;6.488;2022-12-07T04:54:47;2.50;99.90
54192;DHT22;40101;53.002;6.488;2022-12-07T04:57:12;3.20;99.90
54192;DHT22;40101;53.002;6.488;2022-12-07T04:59:38;2.50;99.90
54192;DHT22;40101;53.002;6.488;2022-12-07T05:02:04;2.50;99.90
54192;DHT22;40101;53.002;6.488;2022-12-07T05:04:29;2.50;99.90
54192;DHT22;40101;53.002;6.488;2022-12-07T05:06:55;2.60;99.90
54192;DHT22;40101;53.002;6.488;2022-12-07T05:09:21;2.50;99.90
54192;DHT22;40101;53.002;6.488;2022-12-07T05:11:47;2.50;99.90
54192;DHT22;40101;53.002;6.488;2022-12-07T05:14:20;3.20;99.90
54192;DHT22;40101;53.002;6.488;2022-12-07T05:16:48;2.50;99.90
54192;DHT22;40101;53.002;6.488;2022-12-07T05:19:15;2.50;99.90
54192;DHT22;40101;53.002;6.488;2022-12-07T05:21:41;2.50;99.90
54192;DHT22;40101;53.002;6.488;2022-12-07T05:24:07;2.50;99.90
54192;DHT22;40101;53.002;6.488;2022-12-07T05:26:34;2.40;99.90
54192;DHT22;40101;53.002;6.488;2022-12-07T05:28:59;2.40;99.90
54192;DHT22;40101;53.002;6.488;2022-12-07T05:31:26;2.40;99.90
54192;DHT22;40101;53.002;6.488;2022-12-07T05:33:52;2.30;99.90
54192;DHT22;40101;53.002;6.488;2022-12-07T05:36:18;2.20;99.90
54192;DHT22;40101;53.002;6.488;2022-12-07T05:38:44;2.10;99.90
54192;DHT22;40101;53.002;6.488;2022-12-07T05:41:12;3.40;99.90
54192;DHT22;40101;53.002;6.488;2022-12-07T05:43:58;1.90;99.90
54192;DHT22;40101;53.002;6.488;2022-12-07T05:46:24;2.30;99.90
54192;DHT22;40101;53.002;6.488;2022-12-07T05:48:50;1.80;99.90
54192;DHT22;40101;53.002;6.488;2022-12-07T05:51:16;1.80;99.90
54192;DHT22;40101;53.002;6.488;2022-12-07T05:53:41;1.80;99.90
54192;DHT22;40101;53.002;6.488;2022-12-07T05:56:07;1.80;99.90
54192;DHT22;40101;53.002;6.488;2022-12-07T05:58:33;1.90;99.90
54192;DHT22;40101;53.002;6.488;2022-12-07T06:01:17;1.90;99.90
54192;DHT22;40101;53.002;6.488;2022-12-07T06:03:42;1.90;99.90
54192;DHT22;40101;53.002;6.488;2022-12-07T06:06:08;1.90;99.90
54192;DHT22;40101;53.002;6.488;2022-12-07T06:08:34;2.00;99.90
54192;DHT22;40101;53.002;6.488;2022-12-07T06:10:59;2.10;99.90
54192;DHT22;40101;53.002;6.488;2022-12-07T06:13:43;2.10;99.90
54192;DHT22;40101;53.002;6.488;2022-12-07T06:16:09;2.10;99.90
54192;DHT22;40101;53.002;6.488;2022-12-07T06:18:34;2.20;99.90
54192;DHT22;40101;53.002;6.488;2022-12-07T06:21:00;2.20;99.90
54192;DHT22;40101;53.002;6.488;2022-12-07T06:23:26;2.20;99.90
54192;DHT22;40101;53.002;6.488;2022-12-07T06:25:52;2.20;99.90
54192;DHT22;40101;53.002;6.488;2022-12-07T06:28:17;2.30;99.90
54192;DHT22;40101;53.002;6.488;2022-12-07T06:30:43;2.30;99.90
54192;DHT22;40101;53.002;6.488;2022-12-07T06:33:29;2.30;99.90
54192;DHT22;40101;53.002;6.488;2022-12-07T06:35:57;2.30;99.90
54192;DHT22;40101;53.002;6.488;2022-12-07T06:38:23;2.40;99.90
54192;DHT22;40101;53.002;6.488;2022-12-07T06:40:49;2.40;99.90
54192;DHT22;40101;53.002;6.488;2022-12-07T06:43:14;2.40;99.90
54192;DHT22;40101;53.002;6.488;2022-12-07T06:45:41;2.40;99.90
54192;DHT22;40101;53.002;6.488;2022-12-07T06:48:07;2.50;99.90
54192;DHT22;40101;53.002;6.488;2022-12-07T06:50:32;3.10;99.90
54192;DHT22;40101;53.002;6.488;2022-12-07T06:52:58;2.60;99.90
54192;DHT22;40101;53.002;6.488;2022-12-07T06:55:24;2.60;99.90
54192;DHT22;40101;53.002;6.488;2022-12-07T06:57:49;2.70;99.90
54192;DHT22;40101;53.002;6.488;2022-12-07T07:00:15;2.70;99.90
54192;DHT22;40101;53.002;6.488;2022-12-07T07:02:41;2.70;99.90
54192;DHT22;40101;53.002;6.488;2022-12-07T07:05:07;2.70;99.90
54192;DHT22;40101;53.002;6.488;2022-12-07T07:07:33;2.70;99.90
54192;DHT22;40101;53.002;6.488;2022-12-07T07:09:59;2.70;99.90
54192;DHT22;40101;53.002;6.488;2022-12-07T07:12:24;2.60;99.90
54192;DHT22;40101;53.002;6.488;2022-12-07T07:14:50;2.60;99.90
54192;DHT22;40101;53.002;6.488;2022-12-07T07:17:15;2.50;99.90
54192;DHT22;40101;53.002;6.488;2022-12-07T07:19:41;2.40;99.90
54192;DHT22;40101;53.002;6.488;2022-12-07T07:22:07;2.40;99.90
54192;DHT22;40101;53.002;6.488;2022-12-07T07:24:33;2.40;99.90
54192;DHT22;40101;53.002;6.488;2022-12-07T07:26:58;2.40;99.90
54192;DHT22;40101;53.002;6.488;2022-12-07T07:29:24;2.40;99.90
54192;DHT22;40101;53.002;6.488;2022-12-07T07:31:50;2.40;99.90
54192;DHT22;40101;53.002;6.488;2022-12-07T07:34:15;2.40;99.90
54192;DHT22;40101;53.002;6.488;2022-12-07T07:36:41;2.40;99.90
54192;DHT22;40101;53.002;6.488;2022-12-07T07:39:09;2.50;99.90
54192;DHT22;40101;53.002;6.488;2022-12-07T07:41:48;2.40;99.90
54192;DHT22;40101;53.002;6.488;2022-12-07T07:44:43;2.40;99.90
54192;DHT22;40101;53.002;6.488;2022-12-07T07:50:26;2.50;99.90
54192;DHT22;40101;53.002;6.488;2022-12-07T07:52:52;3.00;99.90
54192;DHT22;40101;53.002;6.488;2022-12-07T07:55:20;2.50;99.90
54192;DHT22;40101;53.002;6.488;2022-12-07T07:57:49;2.40;99.90
54192;DHT22;40101;53.002;6.488;2022-12-07T08:00:16;2.40;99.90
54192;DHT22;40101;53.002;6.488;2022-12-07T08:02:42;2.40;99.90
54192;DHT22;40101;53.002;6.488;2022-12-07T08:05:10;2.90;99.90
54192;DHT22;40101;53.002;6.488;2022-12-07T08:07:36;3.30;99.90
54192;DHT22;40101;53.002;6.488;2022-12-07T08:10:02;2.50;99.90
54192;DHT22;40101;53.002;6.488;2022-12-07T08:12:28;2.80;99.90
54192;DHT22;40101;53.002;6.488;2022-12-07T08:14:54;3.20;99.90
54192;DHT22;40101;53.002;6.488;2022-12-07T08:17:20;3.90;99.90
54192;DHT22;40101;53.002;6.488;2022-12-07T08:19:46;4.20;99.90
54192;DHT22;40101;53.002;6.488;2022-12-07T08:22:12;4.80;99.90
54192;DHT22;40101;53.002;6.488;2022-12-07T08:24:37;5.30;99.90
54192;DHT22;40101;53.002;6.488;2022-12-07T08:27:03;5.70;99.90
54192;DHT22;40101;53.002;6.488;2022-12-07T08:29:29;5.80;99.90
54192;DHT22;40101;53.002;6.488;2022-12-07T08:31:55;5.90;99.90
54192;DHT22;40101;53.002;6.488;2022-12-07T08:34:21;5.00;99.90
54192;DHT22;40101;53.002;6.488;2022-12-07T08:36:47;5.20;99.90
54192;DHT22;40101;53.002;6.488;2022-12-07T08:39:13;4.40;99.90
54192;DHT22;40101;53.002;6.488;2022-12-07T08:41:38;4.70;99.90
54192;DHT22;40101;53.002;6.488;2022-12-07T08:44:05;4.10;99.90
54192;DHT22;40101;53.002;6.488;2022-12-07T08:46:46;4.10;99.90
54192;DHT22;40101;53.002;6.488;2022-12-07T08:49:34;3.70;99.90
54192;DHT22;40101;53.002;6.488;2022-12-07T08:52:04;3.60;99.90
54192;DHT22;40101;53.002;6.488;2022-12-07T08:54:30;3.40;99.90
54192;DHT22;40101;53.002;6.488;2022-12-07T08:56:56;3.40;99.90
54192;DHT22;40101;53.002;6.488;2022-12-07T08:59:22;3.30;99.90
54192;DHT22;40101;53.002;6.488;2022-12-07T09:01:48;3.70;99.90
54192;DHT22;40101;53.002;6.488;2022-12-07T09:04:14;4.60;99.90
54192;DHT22;40101;53.002;6.488;2022-12-07T09:06:43;5.70;99.90
54192;DHT22;40101;53.002;6.488;2022-12-07T09:09:48;6.20;99.90
54192;DHT22;40101;53.002;6.488;2022-12-07T09:12:29;6.90;99.90
54192;DHT22;40101;53.002;6.488;2022-12-07T09:14:54;7.70;99.90
54192;DHT22;40101;53.002;6.488;2022-12-07T09:17:20;7.70;99.90
54192;DHT22;40101;53.002;6.488;2022-12-07T09:19:45;7.80;99.90
54192;DHT22;40101;53.002;6.488;2022-12-07T09:22:11;7.90;99.90
54192;DHT22;40101;53.002;6.488;2022-12-07T09:24:37;7.90;99.90
54192;DHT22;40101;53.002;6.488;2022-12-07T09:27:02;8.20;99.90
54192;DHT22;40101;53.002;6.488;2022-12-07T09:29:28;8.70;99.90
54192;DHT22;40101;53.002;6.488;2022-12-07T09:31:54;8.80;99.90
54192;DHT22;40101;53.002;6.488;2022-12-07T09:34:19;8.40;99.90
54192;DHT22;40101;53.002;6.488;2022-12-07T09:36:45;7.80;99.90
54192;DHT22;40101;53.002;6.488;2022-12-07T09:39:11;7.20;99.90
54192;DHT22;40101;53.002;6.488;2022-12-07T09:41:42;6.80;99.90
54192;DHT22;40101;53.002;6.488;2022-12-07T09:44:14;6.40;99.90
54192;DHT22;40101;53.002;6.488;2022-12-07T09:47:04;6.00;99.90
54192;DHT22;40101;53.002;6.488;2022-12-07T09:49:31;5.70;99.90
54192;DHT22;40101;53.002;6.488;2022-12-07T09:52:24;5.40;99.90
54192;DHT22;40101;53.002;6.488;2022-12-07T09:54:51;5.20;99.90
54192;DHT22;40101;53.002;6.488;2022-12-07T09:57:27;5.10;99.90
54192;DHT22;40101;53.002;6.488;2022-12-07T10:00:03;5.00;99.90
54192;DHT22;40101;53.002;6.488;2022-12-07T10:02:58;4.90;99.90
54192;DHT22;40101;53.002;6.488;2022-12-07T10:05:36;4.80;99.90
54192;DHT22;40101;53.002;6.488;2022-12-07T10:08:04;4.80;99.90
54192;DHT22;40101;53.002;6.488;2022-12-07T10:10:34;4.70;99.90
54192;DHT22;40101;53.002;6.488;2022-12-07T10:13:37;4.80;99.90
54192;DHT22;40101;53.002;6.488;2022-12-07T10:16:03;4.80;99.90
54192;DHT22;40101;53.002;6.488;2022-12-07T10:18:33;4.70;99.90
54192;DHT22;40101;53.002;6.488;2022-12-07T10:23:58;4.70;99.90
54192;DHT22;40101;53.002;6.488;2022-12-07T10:28:54;5.30;99.90
54192;DHT22;40101;53.002;6.488;2022-12-07T10:31:23;5.60;99.90
54192;DHT22;40101;53.002;6.488;2022-12-07T10:33:57;5.80;99.90
54192;DHT22;40101;53.002;6.488;2022-12-07T10:39:14;6.10;99.90
54192;DHT22;40101;53.002;6.488;2022-12-07T10:44:33;6.10;99.90
54192;DHT22;40101;53.002;6.488;2022-12-07T10:50:55;6.00;99.90
54192;DHT22;40101;53.002;6.488;2022-12-07T11:01:51;6.20;99.90
54192;DHT22;40101;53.002;6.488;2022-12-07T11:05:02;6.40;99.90
54192;DHT22;40101;53.002;6.488;2022-12-07T11:07:49;6.60;99.90
54192;DHT22;40101;53.002;6.488;2022-12-07T11:18:29;6.60;99.90
54192;DHT22;40101;53.002;6.488;2022-12-07T11:36:57;6.40;99.90
54192;DHT22;40101;53.002;6.488;2022-12-07T11:39:30;6.40;99.90
54192;DHT22;40101;53.002;6.488;2022-12-07T11:42:10;6.50;99.90
54192;DHT22;40101;53.002;6.488;2022-12-07T11:44:52;6.60;99.90
54192;DHT22;40101;53.002;6.488;2022-12-07T11:47:25;6.70;99.90
54192;DHT22;40101;53.002;6.488;2022-12-07T11:50:21;6.80;99.90
54192;DHT22;40101;53.002;6.488;2022-12-07T11:58:23;7.20;99.90
54192;DHT22;40101;53.002;6.488;2022-12-07T12:01:09;7.20;99.90
54192;DHT22;40101;53.002;6.488;2022-12-07T12:03:42;7.20;99.90
54192;DHT22;40101;53.002;6.488;2022-12-07T12:06:09;7.20;99.90
54192;DHT22;40101;53.002;6.488;2022-12-07T12:08:42;7.00;99.90
54192;DHT22;40101;53.002;6.488;2022-12-07T12:11:18;7.00;99.90
54192;DHT22;40101;53.002;6.488;2022-12-07T12:13:59;6.90;99.90
54192;DHT22;40101;53.002;6.488;2022-12-07T12:16:50;7.80;99.90
54192;DHT22;40101;53.002;6.488;2022-12-07T12:21:57;6.90;99.90
54192;DHT22;40101;53.002;6.488;2022-12-07T12:24:29;6.90;99.90
54192;DHT22;40101;53.002;6.488;2022-12-07T12:27:04;6.90;99.90
54192;DHT22;40101;53.002;6.488;2022-12-07T12:29:34;6.90;99.90
54192;DHT22;40101;53.002;6.488;2022-12-07T12:42:58;6.60;99.90
54192;DHT22;40101;53.002;6.488;2022-12-07T12:45:28;6.60;99.90
54192;DHT22;40101;53.002;6.488;2022-12-07T12:50:37;6.40;99.90
54192;DHT22;40101;53.002;6.488;2022-12-07T12:53:14;6.30;99.90
54192;DHT22;40101;53.002;6.488;2022-12-07T12:56:11;6.10;99.90
54192;DHT22;40101;53.002;6.488;2022-12-07T12:58:39;6.00;99.90
54192;DHT22;40101;53.002;6.488;2022-12-07T13:01:41;6.00;99.90
54192;DHT22;40101;53.002;6.488;2022-12-07T13:04:37;5.90;99.90
54192;DHT22;40101;53.002;6.488;2022-12-07T13:07:03;5.70;99.90
54192;DHT22;40101;53.002;6.488;2022-12-07T13:09:33;5.70;99.90
54192;DHT22;40101;53.002;6.488;2022-12-07T13:12:12;5.60;99.90
54192;DHT22;40101;53.002;6.488;2022-12-07T13:14:42;5.40;99.90
54192;DHT22;40101;53.002;6.488;2022-12-07T13:22:37;5.20;99.90
54192;DHT22;40101;53.002;6.488;2022-12-07T13:25:12;5.10;99.90
54192;DHT22;40101;53.002;6.488;2022-12-07T13:27:41;5.00;99.90
54192;DHT22;40101;53.002;6.488;2022-12-07T13:30:19;5.00;99.90
54192;DHT22;40101;53.002;6.488;2022-12-07T13:32:55;4.90;99.90
54192;DHT22;40101;53.002;6.488;2022-12-07T13:35:41;4.90;99.90
54192;DHT22;40101;53.002;6.488;2022-12-07T13:38:25;4.90;99.90
54192;DHT22;40101;53.002;6.488;2022-12-07T13:41:10;4.80;99.90
54192;DHT22;40101;53.002;6.488;2022-12-07T13:43:50;4.80;99.90
54192;DHT22;40101;53.002;6.488;2022-12-07T13:46:18;4.70;99.90
54192;DHT22;40101;53.002;6.488;2022-12-07T13:48:47;4.60;99.90
54192;DHT22;40101;53.002;6.488;2022-12-07T13:51:25;4.60;99.90
54192;DHT22;40101;53.002;6.488;2022-12-07T13:54:00;4.60;99.90
54192;DHT22;40101;53.002;6.488;2022-12-07T13:56:34;4.60;99.90
54192;DHT22;40101;53.002;6.488;2022-12-07T13:59:00;4.60;99.90
54192;DHT22;40101;53.002;6.488;2022-12-07T14:01:26;4.60;99.90
54192;DHT22;40101;53.002;6.488;2022-12-07T14:03:53;4.50;99.90
54192;DHT22;40101;53.002;6.488;2022-12-07T14:06:26;4.50;99.90
54192;DHT22;40101;53.002;6.488;2022-12-07T14:09:07;4.50;99.90
54192;DHT22;40101;53.002;6.488;2022-12-07T14:11:33;4.50;99.90
54192;DHT22;40101;53.002;6.488;2022-12-07T14:14:01;4.50;99.90
54192;DHT22;40101;53.002;6.488;2022-12-07T14:16:35;4.40;99.90
54192;DHT22;40101;53.002;6.488;2022-12-07T14:19:03;4.40;99.90
54192;DHT22;40101;53.002;6.488;2022-12-07T14:21:34;4.40;99.90
54192;DHT22;40101;53.002;6.488;2022-12-07T14:26:39;4.40;99.90
54192;DHT22;40101;53.002;6.488;2022-12-07T14:31:53;4.40;99.90
54192;DHT22;40101;53.002;6.488;2022-12-07T14:34:23;4.30;99.90
54192;DHT22;40101;53.002;6.488;2022-12-07T14:36:49;4.30;99.90
54192;DHT22;40101;53.002;6.488;2022-12-07T14:39:16;4.30;99.90
54192;DHT22;40101;53.002;6.488;2022-12-07T14:41:42;4.30;99.90
54192;DHT22;40101;53.002;6.488;2022-12-07T14:44:21;4.30;99.90
54192;DHT22;40101;53.002;6.488;2022-12-07T14:46:48;4.30;99.90
54192;DHT22;40101;53.002;6.488;2022-12-07T14:49:14;4.30;99.90
54192;DHT22;40101;53.002;6.488;2022-12-07T14:51:40;4.30;99.90
54192;DHT22;40101;53.002;6.488;2022-12-07T14:54:16;4.30;99.90
54192;DHT22;40101;53.002;6.488;2022-12-07T14:56:42;4.40;99.90
54192;DHT22;40101;53.002;6.488;2022-12-07T14:59:10;4.40;99.90
54192;DHT22;40101;53.002;6.488;2022-12-07T15:01:36;4.40;99.90
54192;DHT22;40101;53.002;6.488;2022-12-07T15:04:02;4.40;99.90
54192;DHT22;40101;53.002;6.488;2022-12-07T15:06:28;4.50;99.90
54192;DHT22;40101;53.002;6.488;2022-12-07T15:08:53;4.40;99.90
54192;DHT22;40101;53.002;6.488;2022-12-07T15:11:20;4.40;99.90
54192;DHT22;40101;53.002;6.488;2022-12-07T15:13:46;4.50;99.90
54192;DHT22;40101;53.002;6.488;2022-12-07T15:16:31;4.50;99.90
54192;DHT22;40101;53.002;6.488;2022-12-07T15:18:56;4.50;99.90
54192;DHT22;40101;53.002;6.488;2022-12-07T15:21:22;4.50;99.90
54192;DHT22;40101;53.002;6.488;2022-12-07T15:23:48;4.80;99.90
54192;DHT22;40101;53.002;6.488;2022-12-07T15:26:14;4.40;99.90
54192;DHT22;40101;53.002;6.488;2022-12-07T15:28:40;4.40;99.90
54192;DHT22;40101;53.002;6.488;2022-12-07T15:31:16;4.40;99.90
54192;DHT22;40101;53.002;6.488;2022-12-07T15:33:43;4.30;99.90
54192;DHT22;40101;53.002;6.488;2022-12-07T15:36:21;4.20;99.90
54192;DHT22;40101;53.002;6.488;2022-12-07T15:38:47;4.20;99.90
54192;DHT22;40101;53.002;6.488;2022-12-07T15:41:13;4.20;99.90
54192;DHT22;40101;53.002;6.488;2022-12-07T15:43:39;4.10;99.90
54192;DHT22;40101;53.002;6.488;2022-12-07T15:46:30;4.00;99.90
54192;DHT22;40101;53.002;6.488;2022-12-07T15:48:56;4.00;99.90
54192;DHT22;40101;53.002;6.488;2022-12-07T15:51:21;4.00;99.90
54192;DHT22;40101;53.002;6.488;2022-12-07T15:53:47;4.00;99.90
54192;DHT22;40101;53.002;6.488;2022-12-07T15:56:13;4.00;99.90
54192;DHT22;40101;53.002;6.488;2022-12-07T15:58:38;3.90;99.90
54192;DHT22;40101;53.002;6.488;2022-12-07T16:01:16;3.90;99.90
54192;DHT22;40101;53.002;6.488;2022-12-07T16:03:42;3.90;99.90
54192;DHT22;40101;53.002;6.488;2022-12-07T16:06:08;3.90;99.90
54192;DHT22;40101;53.002;6.488;2022-12-07T16:08:33;3.80;99.90
54192;DHT22;40101;53.002;6.488;2022-12-07T16:10:59;3.80;99.90
54192;DHT22;40101;53.002;6.488;2022-12-07T16:13:29;3.80;99.90
54192;DHT22;40101;53.002;6.488;2022-12-07T16:15:55;4.60;99.90
54192;DHT22;40101;53.002;6.488;2022-12-07T16:18:20;3.60;99.90
54192;DHT22;40101;53.002;6.488;2022-12-07T16:20:50;4.20;99.90
54192;DHT22;40101;53.002;6.488;2022-12-07T16:23:15;3.80;99.90
54192;DHT22;40101;53.002;6.488;2022-12-07T16:26:00;3.80;99.90
54192;DHT22;40101;53.002;6.488;2022-12-07T16:28:31;3.90;99.90
54192;DHT22;40101;53.002;6.488;2022-12-07T16:31:07;4.30;99.90
54192;DHT22;40101;53.002;6.488;2022-12-07T16:33:36;3.90;99.90
54192;DHT22;40101;53.002;6.488;2022-12-07T16:36:03;3.90;99.90
54192;DHT22;40101;53.002;6.488;2022-12-07T16:38:29;3.80;99.90
54192;DHT22;40101;53.002;6.488;2022-12-07T16:40:58;3.80;99.90
54192;DHT22;40101;53.002;6.488;2022-12-07T16:43:24;4.30;99.90
54192;DHT22;40101;53.002;6.488;2022-12-07T16:45:59;3.80;99.90
54192;DHT22;40101;53.002;6.488;2022-12-07T16:48:25;3.80;99.90
54192;DHT22;40101;53.002;6.488;2022-12-07T16:50:50;3.40;99.90
54192;DHT22;40101;53.002;6.488;2022-12-07T16:53:20;5.00;99.90
54192;DHT22;40101;53.002;6.488;2022-12-07T16:55:46;3.80;99.90
54192;DHT22;40101;53.002;6.488;2022-12-07T16:58:15;3.80;99.90
54192;DHT22;40101;53.002;6.488;2022-12-07T17:00:45;3.80;99.90
54192;DHT22;40101;53.002;6.488;2022-12-07T17:03:10;3.80;99.90
54192;DHT22;40101;53.002;6.488;2022-12-07T17:05:42;4.10;99.90
54192;DHT22;40101;53.002;6.488;2022-12-07T17:08:10;3.90;99.90
54192;DHT22;40101;53.002;6.488;2022-12-07T17:10:38;4.90;99.90
54192;DHT22;40101;53.002;6.488;2022-12-07T17:13:05;3.90;99.90
54192;DHT22;40101;53.002;6.488;2022-12-07T17:16:09;3.90;99.90
54192;DHT22;40101;53.002;6.488;2022-12-07T17:18:35;4.30;99.90
54192;DHT22;40101;53.002;6.488;2022-12-07T17:21:07;3.80;99.90
54192;DHT22;40101;53.002;6.488;2022-12-07T17:23:34;3.80;99.90
54192;DHT22;40101;53.002;6.488;2022-12-07T17:26:12;4.40;99.90
54192;DHT22;40101;53.002;6.488;2022-12-07T17:28:49;3.70;99.90
54192;DHT22;40101;53.002;6.488;2022-12-07T17:31:23;3.70;99.90
54192;DHT22;40101;53.002;6.488;2022-12-07T17:33:50;4.10;99.90
54192;DHT22;40101;53.002;6.488;2022-12-07T17:36:20;3.60;99.90
54192;DHT22;40101;53.002;6.488;2022-12-07T17:38:47;3.50;99.90
54192;DHT22;40101;53.002;6.488;2022-12-07T17:41:15;3.50;99.90
54192;DHT22;40101;53.002;6.488;2022-12-07T17:44:01;3.50;99.90
54192;DHT22;40101;53.002;6.488;2022-12-07T17:46:27;3.50;99.90
54192;DHT22;40101;53.002;6.488;2022-12-07T17:48:57;3.50;99.90
54192;DHT22;40101;53.002;6.488;2022-12-07T17:51:23;3.40;99.90